sensor_id;sensor_type;location;lat;lon;timestamp;temperature;humidity
75786;DHT22;64402;44.708;37.644;2024-02-21T00:02:01;0.49;79.75
75786;DHT22;64402;44.708;37.644;2024-02-21T00:04:28;0.51;79.69
75786;DHT22;64402;44.708;37.644;2024-02-21T00:06:54;0.46;80.10
75786;DHT22;64402;44.708;37.644;2024-02-21T00:09:20;0.38;80.39
75786;DHT22;64402;44.708;37.644;2024-02-21T00:11:47;0.35;79.33
75786;DHT22;64402;44.708;37.644;2024-02-21T00:14:13;0.34;79.49
75786;DHT22;64402;44.708;37.644;2024-02-21T00:16:40;0.33;80.01
75786;DHT22;64402;44.708;37.644;2024-02-21T00:19:06;0.20;79.13
75786;DHT22;64402;44.708;37.644;2024-02-21T00:21:33;0.21;79.86
75786;DHT22;64402;44.708;37.644;2024-02-21T00:23:59;0.22;79.79
75786;DHT22;64402;44.708;37.644;2024-02-21T00:26:25;0.20;79.56
75786;DHT22;64402;44.708;37.644;2024-02-21T00:28:52;0.20;79.62
75786;DHT22;64402;44.708;37.644;2024-02-21T00:31:19;0.17;79.53
75786;DHT22;64402;44.708;37.644;2024-02-21T00:33:45;0.16;78.79
75786;DHT22;64402;44.708;37.644;2024-02-21T00:36:12;0.15;79.69
75786;DHT22;64402;44.708;37.644;2024-02-21T00:38:38;0.17;79.41
75786;DHT22;64402;44.708;37.644;2024-02-21T00:41:04;0.14;79.43
75786;DHT22;64402;44.708;37.644;2024-02-21T00:43:31;0.15;79.41
75786;DHT22;64402;44.708;37.644;2024-02-21T00:45:57;0.19;79.75
75786;DHT22;64402;44.708;37.644;2024-02-21T00:48:24;0.21;79.88
75786;DHT22;64402;44.708;37.644;2024-02-21T00:50:50;0.20;79.72
75786;DHT22;64402;44.708;37.644;2024-02-21T00:53:17;0.13;79.08
75786;DHT22;64402;44.708;37.644;2024-02-21T00:55:43;0.13;80.01
75786;DHT22;64402;44.708;37.644;2024-02-21T00:58:10;0.09;79.98
75786;DHT22;64402;44.708;37.644;2024-02-21T01:00:36;0.08;81.10
75786;DHT22;64402;44.708;37.644;2024-02-21T01:03:03;0.12;81.66
75786;DHT22;64402;44.708;37.644;2024-02-21T01:05:31;-0.07;78.77
75786;DHT22;64402;44.708;37.644;2024-02-21T01:08:00;-0.23;80.27
75786;DHT22;64402;44.708;37.644;2024-02-21T01:10:26;-0.21;80.45
75786;DHT22;64402;44.708;37.644;2024-02-21T01:12:52;-0.15;81.56
75786;DHT22;64402;44.708;37.644;2024-02-21T01:15:19;-0.12;81.06
75786;DHT22;64402;44.708;37.644;2024-02-21T01:17:45;-0.03;80.91
75786;DHT22;64402;44.708;37.644;2024-02-21T01:20:12;-0.01;80.76
75786;DHT22;64402;44.708;37.644;2024-02-21T01:22:38;-0.00;80.13
75786;DHT22;64402;44.708;37.644;2024-02-21T01:25:05;-0.06;80.36
75786;DHT22;64402;44.708;37.644;2024-02-21T01:27:32;-0.07;80.75
75786;DHT22;64402;44.708;37.644;2024-02-21T01:29:59;-0.06;80.03
75786;DHT22;64402;44.708;37.644;2024-02-21T01:32:25;-0.03;80.75
75786;DHT22;64402;44.708;37.644;2024-02-21T01:34:51;0.01;80.58
75786;DHT22;64402;44.708;37.644;2024-02-21T01:37:18;-0.00;79.62
75786;DHT22;64402;44.708;37.644;2024-02-21T01:39:44;-0.03;80.04
75786;DHT22;64402;44.708;37.644;2024-02-21T01:42:11;-0.05;80.27
75786;DHT22;64402;44.708;37.644;2024-02-21T01:44:37;-0.09;80.46
75786;DHT22;64402;44.708;37.644;2024-02-21T01:47:04;-0.10;81.33
75786;DHT22;64402;44.708;37.644;2024-02-21T01:49:31;-0.08;81.40
75786;DHT22;64402;44.708;37.644;2024-02-21T01:51:58;-0.09;81.84
75786;DHT22;64402;44.708;37.644;2024-02-21T01:54:25;-0.07;81.06
75786;DHT22;64402;44.708;37.644;2024-02-21T01:56:54;-0.08;81.29
75786;DHT22;64402;44.708;37.644;2024-02-21T01:59:21;-0.08;80.75
75786;DHT22;64402;44.708;37.644;2024-02-21T02:01:48;-0.06;81.06
75786;DHT22;64402;44.708;37.644;2024-02-21T02:04:16;-0.02;80.52
75786;DHT22;64402;44.708;37.644;2024-02-21T02:06:42;-0.08;80.77
75786;DHT22;64402;44.708;37.644;2024-02-21T02:09:09;-0.09;81.12
75786;DHT22;64402;44.708;37.644;2024-02-21T02:11:36;-0.09;80.89
75786;DHT22;64402;44.708;37.644;2024-02-21T02:14:02;-0.09;80.78
75786;DHT22;64402;44.708;37.644;2024-02-21T02:16:29;-0.13;80.21
75786;DHT22;64402;44.708;37.644;2024-02-21T02:18:55;-0.16;80.48
75786;DHT22;64402;44.708;37.644;2024-02-21T02:21:29;-0.14;81.09
75786;DHT22;64402;44.708;37.644;2024-02-21T02:23:56;-0.06;80.55
75786;DHT22;64402;44.708;37.644;2024-02-21T02:26:22;-0.06;80.34
75786;DHT22;64402;44.708;37.644;2024-02-21T02:28:49;-0.13;80.73
75786;DHT22;64402;44.708;37.644;2024-02-21T02:31:16;-0.15;81.29
75786;DHT22;64402;44.708;37.644;2024-02-21T02:33:45;-0.10;81.88
75786;DHT22;64402;44.708;37.644;2024-02-21T02:36:12;-0.02;81.47
75786;DHT22;64402;44.708;37.644;2024-02-21T02:38:38;-0.05;81.10
75786;DHT22;64402;44.708;37.644;2024-02-21T02:41:05;-0.03;81.42
75786;DHT22;64402;44.708;37.644;2024-02-21T02:43:31;-0.00;81.61
75786;DHT22;64402;44.708;37.644;2024-02-21T02:45:57;0.09;80.91
75786;DHT22;64402;44.708;37.644;2024-02-21T02:48:24;0.12;80.06
75786;DHT22;64402;44.708;37.644;2024-02-21T02:50:51;0.18;79.81
75786;DHT22;64402;44.708;37.644;2024-02-21T02:53:17;0.21;78.94
75786;DHT22;64402;44.708;37.644;2024-02-21T02:55:43;0.24;79.52
75786;DHT22;64402;44.708;37.644;2024-02-21T02:58:10;0.29;78.95
75786;DHT22;64402;44.708;37.644;2024-02-21T03:00:36;0.27;78.61
75786;DHT22;64402;44.708;37.644;2024-02-21T03:03:03;0.28;78.79
75786;DHT22;64402;44.708;37.644;2024-02-21T03:05:34;0.27;78.27
75786;DHT22;64402;44.708;37.644;2024-02-21T03:08:01;0.22;79.33
75786;DHT22;64402;44.708;37.644;2024-02-21T03:10:27;0.19;79.58
75786;DHT22;64402;44.708;37.644;2024-02-21T03:12:54;0.18;80.06
75786;DHT22;64402;44.708;37.644;2024-02-21T03:15:20;0.20;80.17
75786;DHT22;64402;44.708;37.644;2024-02-21T03:17:47;0.20;79.99
75786;DHT22;64402;44.708;37.644;2024-02-21T03:20:13;0.13;80.12
75786;DHT22;64402;44.708;37.644;2024-02-21T03:22:40;0.17;83.36
75786;DHT22;64402;44.708;37.644;2024-02-21T03:25:08;0.24;84.42
75786;DHT22;64402;44.708;37.644;2024-02-21T03:27:35;0.30;84.60
75786;DHT22;64402;44.708;37.644;2024-02-21T03:30:02;0.37;84.56
75786;DHT22;64402;44.708;37.644;2024-02-21T03:32:28;0.43;84.26
75786;DHT22;64402;44.708;37.644;2024-02-21T03:34:55;0.45;84.29
75786;DHT22;64402;44.708;37.644;2024-02-21T03:37:21;0.47;84.13
75786;DHT22;64402;44.708;37.644;2024-02-21T03:39:48;0.49;83.95
75786;DHT22;64402;44.708;37.644;2024-02-21T03:42:14;0.51;83.86
75786;DHT22;64402;44.708;37.644;2024-02-21T03:44:41;0.53;83.75
75786;DHT22;64402;44.708;37.644;2024-02-21T03:47:07;0.58;83.63
75786;DHT22;64402;44.708;37.644;2024-02-21T03:49:36;0.61;83.66
75786;DHT22;64402;44.708;37.644;2024-02-21T03:52:03;0.63;83.22
75786;DHT22;64402;44.708;37.644;2024-02-21T03:54:30;0.65;82.99
75786;DHT22;64402;44.708;37.644;2024-02-21T03:56:56;0.68;83.29
75786;DHT22;64402;44.708;37.644;2024-02-21T03:59:23;0.69;82.96
75786;DHT22;64402;44.708;37.644;2024-02-21T04:01:52;0.73;82.67
75786;DHT22;64402;44.708;37.644;2024-02-21T04:04:19;0.72;83.00
75786;DHT22;64402;44.708;37.644;2024-02-21T04:06:47;0.73;82.85
75786;DHT22;64402;44.708;37.644;2024-02-21T04:09:14;0.73;82.82
75786;DHT22;64402;44.708;37.644;2024-02-21T04:11:40;0.73;82.78
75786;DHT22;64402;44.708;37.644;2024-02-21T04:14:07;0.72;82.94
75786;DHT22;64402;44.708;37.644;2024-02-21T04:16:34;0.76;83.07
75786;DHT22;64402;44.708;37.644;2024-02-21T04:19:01;0.79;82.70
75786;DHT22;64402;44.708;37.644;2024-02-21T04:21:28;0.80;82.61
75786;DHT22;64402;44.708;37.644;2024-02-21T04:23:54;0.83;82.67
75786;DHT22;64402;44.708;37.644;2024-02-21T04:26:21;0.84;82.49
75786;DHT22;64402;44.708;37.644;2024-02-21T04:28:47;0.83;82.42
75786;DHT22;64402;44.708;37.644;2024-02-21T04:31:14;0.86;82.47
75786;DHT22;64402;44.708;37.644;2024-02-21T04:33:40;0.86;82.20
75786;DHT22;64402;44.708;37.644;2024-02-21T04:36:07;0.84;82.21
75786;DHT22;64402;44.708;37.644;2024-02-21T04:38:33;0.83;82.36
75786;DHT22;64402;44.708;37.644;2024-02-21T04:41:00;0.84;82.32
75786;DHT22;64402;44.708;37.644;2024-02-21T04:43:26;0.87;82.78
75786;DHT22;64402;44.708;37.644;2024-02-21T04:45:53;0.93;82.74
75786;DHT22;64402;44.708;37.644;2024-02-21T04:48:20;1.03;82.52
75786;DHT22;64402;44.708;37.644;2024-02-21T04:50:47;1.11;82.39
75786;DHT22;64402;44.708;37.644;2024-02-21T04:53:16;1.22;82.29
75786;DHT22;64402;44.708;37.644;2024-02-21T04:55:43;1.32;81.96
75786;DHT22;64402;44.708;37.644;2024-02-21T04:58:10;1.31;80.75
75786;DHT22;64402;44.708;37.644;2024-02-21T05:00:36;1.29;80.27
75786;DHT22;64402;44.708;37.644;2024-02-21T05:03:03;1.25;80.32
75786;DHT22;64402;44.708;37.644;2024-02-21T05:05:29;1.25;80.59
75786;DHT22;64402;44.708;37.644;2024-02-21T05:07:56;1.27;80.56
75786;DHT22;64402;44.708;37.644;2024-02-21T05:10:22;1.28;80.70
75786;DHT22;64402;44.708;37.644;2024-02-21T05:12:49;1.42;81.00
75786;DHT22;64402;44.708;37.644;2024-02-21T05:15:16;1.57;80.70
75786;DHT22;64402;44.708;37.644;2024-02-21T05:17:42;1.77;79.59
75786;DHT22;64402;44.708;37.644;2024-02-21T05:20:09;1.94;77.81
75786;DHT22;64402;44.708;37.644;2024-02-21T05:22:36;2.11;76.58
75786;DHT22;64402;44.708;37.644;2024-02-21T05:25:03;2.34;76.97
75786;DHT22;64402;44.708;37.644;2024-02-21T05:27:29;2.52;75.71
75786;DHT22;64402;44.708;37.644;2024-02-21T05:29:56;2.68;75.79
75786;DHT22;64402;44.708;37.644;2024-02-21T05:32:22;2.82;74.17
75786;DHT22;64402;44.708;37.644;2024-02-21T05:34:49;2.98;74.48
75786;DHT22;64402;44.708;37.644;2024-02-21T05:37:16;3.05;75.41
75786;DHT22;64402;44.708;37.644;2024-02-21T05:39:42;3.08;75.47
75786;DHT22;64402;44.708;37.644;2024-02-21T05:42:09;3.16;75.41
75786;DHT22;64402;44.708;37.644;2024-02-21T05:44:35;3.26;75.26
75786;DHT22;64402;44.708;37.644;2024-02-21T05:47:02;3.34;74.78
75786;DHT22;64402;44.708;37.644;2024-02-21T05:49:28;3.46;74.56
75786;DHT22;64402;44.708;37.644;2024-02-21T05:51:54;3.56;73.67
75786;DHT22;64402;44.708;37.644;2024-02-21T05:54:21;3.67;73.85
75786;DHT22;64402;44.708;37.644;2024-02-21T05:56:47;3.74;71.39
75786;DHT22;64402;44.708;37.644;2024-02-21T05:59:14;3.88;70.66
75786;DHT22;64402;44.708;37.644;2024-02-21T06:01:40;3.98;70.19
75786;DHT22;64402;44.708;37.644;2024-02-21T06:04:07;4.12;68.81
75786;DHT22;64402;44.708;37.644;2024-02-21T06:06:34;4.26;69.53
75786;DHT22;64402;44.708;37.644;2024-02-21T06:09:00;4.29;67.49
75786;DHT22;64402;44.708;37.644;2024-02-21T06:11:28;4.30;68.56
75786;DHT22;64402;44.708;37.644;2024-02-21T06:13:55;4.33;68.33
75786;DHT22;64402;44.708;37.644;2024-02-21T06:16:21;4.38;67.34
75786;DHT22;64402;44.708;37.644;2024-02-21T06:18:48;4.51;67.77
75786;DHT22;64402;44.708;37.644;2024-02-21T06:21:14;4.68;67.12
75786;DHT22;64402;44.708;37.644;2024-02-21T06:23:42;4.83;66.53
75786;DHT22;64402;44.708;37.644;2024-02-21T06:26:09;4.98;65.62
75786;DHT22;64402;44.708;37.644;2024-02-21T06:28:36;5.17;64.96
75786;DHT22;64402;44.708;37.644;2024-02-21T06:31:02;5.35;63.55
75786;DHT22;64402;44.708;37.644;2024-02-21T06:33:29;5.55;61.44
75786;DHT22;64402;44.708;37.644;2024-02-21T06:35:55;5.78;62.00
75786;DHT22;64402;44.708;37.644;2024-02-21T06:38:22;6.05;61.25
75786;DHT22;64402;44.708;37.644;2024-02-21T06:40:49;6.21;60.20
75786;DHT22;64402;44.708;37.644;2024-02-21T06:43:19;6.43;58.88
75786;DHT22;64402;44.708;37.644;2024-02-21T06:45:46;6.66;57.15
75786;DHT22;64402;44.708;37.644;2024-02-21T06:48:19;6.78;57.10
75786;DHT22;64402;44.708;37.644;2024-02-21T06:50:46;6.84;57.12
75786;DHT22;64402;44.708;37.644;2024-02-21T06:53:12;6.83;56.33
75786;DHT22;64402;44.708;37.644;2024-02-21T06:55:39;6.86;57.02
75786;DHT22;64402;44.708;37.644;2024-02-21T06:58:05;7.48;54.84
75786;DHT22;64402;44.708;37.644;2024-02-21T07:00:34;8.26;53.97
75786;DHT22;64402;44.708;37.644;2024-02-21T07:03:01;8.53;52.49
75786;DHT22;64402;44.708;37.644;2024-02-21T07:05:28;8.64;52.99
75786;DHT22;64402;44.708;37.644;2024-02-21T07:07:55;9.40;52.07
75786;DHT22;64402;44.708;37.644;2024-02-21T07:10:21;10.21;49.78
75786;DHT22;64402;44.708;37.644;2024-02-21T07:12:48;10.79;48.39
75786;DHT22;64402;44.708;37.644;2024-02-21T07:15:14;11.30;46.33
75786;DHT22;64402;44.708;37.644;2024-02-21T07:17:41;11.81;44.97
75786;DHT22;64402;44.708;37.644;2024-02-21T07:20:08;12.45;45.28
75786;DHT22;64402;44.708;37.644;2024-02-21T07:22:35;12.82;44.25
75786;DHT22;64402;44.708;37.644;2024-02-21T07:25:01;13.08;43.08
75786;DHT22;64402;44.708;37.644;2024-02-21T07:27:28;13.49;42.05
75786;DHT22;64402;44.708;37.644;2024-02-21T07:29:57;13.59;40.13
75786;DHT22;64402;44.708;37.644;2024-02-21T07:32:24;13.61;39.36
75786;DHT22;64402;44.708;37.644;2024-02-21T07:34:50;13.76;39.97
75786;DHT22;64402;44.708;37.644;2024-02-21T07:37:17;14.01;38.49
75786;DHT22;64402;44.708;37.644;2024-02-21T07:39:43;14.07;37.43
75786;DHT22;64402;44.708;37.644;2024-02-21T07:42:10;14.05;37.36
75786;DHT22;64402;44.708;37.644;2024-02-21T07:44:36;14.38;38.31
75786;DHT22;64402;44.708;37.644;2024-02-21T07:47:03;14.58;37.85
75786;DHT22;64402;44.708;37.644;2024-02-21T07:49:29;14.92;36.73
75786;DHT22;64402;44.708;37.644;2024-02-21T07:51:56;15.30;36.04
75786;DHT22;64402;44.708;37.644;2024-02-21T07:54:22;15.56;34.23
75786;DHT22;64402;44.708;37.644;2024-02-21T07:56:49;15.87;36.18
75786;DHT22;64402;44.708;37.644;2024-02-21T07:59:15;16.15;35.28
75786;DHT22;64402;44.708;37.644;2024-02-21T08:01:42;16.14;35.96
75786;DHT22;64402;44.708;37.644;2024-02-21T08:04:09;16.59;33.84
75786;DHT22;64402;44.708;37.644;2024-02-21T08:06:35;17.03;32.64
75786;DHT22;64402;44.708;37.644;2024-02-21T08:09:02;17.11;34.06
75786;DHT22;64402;44.708;37.644;2024-02-21T08:11:28;17.75;32.41
75786;DHT22;64402;44.708;37.644;2024-02-21T08:13:55;18.12;32.10
75786;DHT22;64402;44.708;37.644;2024-02-21T08:16:21;17.81;30.72
75786;DHT22;64402;44.708;37.644;2024-02-21T08:18:48;17.30;32.76
75786;DHT22;64402;44.708;37.644;2024-02-21T08:21:14;16.18;33.83
75786;DHT22;64402;44.708;37.644;2024-02-21T08:23:41;15.66;34.48
75786;DHT22;64402;44.708;37.644;2024-02-21T08:26:07;15.93;32.89
75786;DHT22;64402;44.708;37.644;2024-02-21T08:28:34;15.74;32.56
75786;DHT22;64402;44.708;37.644;2024-02-21T08:31:01;14.53;34.40
75786;DHT22;64402;44.708;37.644;2024-02-21T08:33:27;14.80;34.53
75786;DHT22;64402;44.708;37.644;2024-02-21T08:35:55;15.85;34.00
75786;DHT22;64402;44.708;37.644;2024-02-21T08:38:22;16.39;30.87
75786;DHT22;64402;44.708;37.644;2024-02-21T08:40:49;15.09;32.24
75786;DHT22;64402;44.708;37.644;2024-02-21T08:43:16;15.44;32.35
75786;DHT22;64402;44.708;37.644;2024-02-21T08:45:42;15.57;32.41
75786;DHT22;64402;44.708;37.644;2024-02-21T08:48:09;14.98;34.25
75786;DHT22;64402;44.708;37.644;2024-02-21T08:50:35;15.49;33.45
75786;DHT22;64402;44.708;37.644;2024-02-21T08:53:02;16.75;30.83
75786;DHT22;64402;44.708;37.644;2024-02-21T08:55:29;16.92;30.20
75786;DHT22;64402;44.708;37.644;2024-02-21T08:57:56;17.50;31.46
75786;DHT22;64402;44.708;37.644;2024-02-21T09:00:22;18.55;29.25
75786;DHT22;64402;44.708;37.644;2024-02-21T09:02:53;18.58;26.71
75786;DHT22;64402;44.708;37.644;2024-02-21T09:05:22;18.53;28.61
75786;DHT22;64402;44.708;37.644;2024-02-21T09:07:48;18.52;27.04
75786;DHT22;64402;44.708;37.644;2024-02-21T09:10:15;18.50;27.94
75786;DHT22;64402;44.708;37.644;2024-02-21T09:12:42;19.44;27.67
75786;DHT22;64402;44.708;37.644;2024-02-21T09:15:08;19.70;25.32
75786;DHT22;64402;44.708;37.644;2024-02-21T09:17:35;17.70;26.91
75786;DHT22;64402;44.708;37.644;2024-02-21T09:20:02;16.26;30.06
75786;DHT22;64402;44.708;37.644;2024-02-21T09:22:29;17.49;30.29
75786;DHT22;64402;44.708;37.644;2024-02-21T09:24:57;18.56;27.76
75786;DHT22;64402;44.708;37.644;2024-02-21T09:27:24;18.87;27.23
75786;DHT22;64402;44.708;37.644;2024-02-21T09:29:50;18.98;27.65
75786;DHT22;64402;44.708;37.644;2024-02-21T09:32:18;20.24;25.32
75786;DHT22;64402;44.708;37.644;2024-02-21T09:34:45;21.24;24.78
75786;DHT22;64402;44.708;37.644;2024-02-21T09:37:11;21.18;22.42
75786;DHT22;64402;44.708;37.644;2024-02-21T09:39:38;20.47;23.45
75786;DHT22;64402;44.708;37.644;2024-02-21T09:42:06;21.23;23.51
75786;DHT22;64402;44.708;37.644;2024-02-21T09:44:38;22.26;21.84
75786;DHT22;64402;44.708;37.644;2024-02-21T09:47:19;23.02;20.62
75786;DHT22;64402;44.708;37.644;2024-02-21T09:49:48;23.58;19.44
75786;DHT22;64402;44.708;37.644;2024-02-21T09:52:15;23.69;19.30
75786;DHT22;64402;44.708;37.644;2024-02-21T09:54:43;24.32;19.42
75786;DHT22;64402;44.708;37.644;2024-02-21T09:57:11;25.13;17.90
75786;DHT22;64402;44.708;37.644;2024-02-21T09:59:38;25.07;17.01
75786;DHT22;64402;44.708;37.644;2024-02-21T10:02:05;25.29;17.14
75786;DHT22;64402;44.708;37.644;2024-02-21T10:04:33;25.86;16.48
75786;DHT22;64402;44.708;37.644;2024-02-21T10:06:59;25.84;14.85
75786;DHT22;64402;44.708;37.644;2024-02-21T10:09:27;25.20;16.86
75786;DHT22;64402;44.708;37.644;2024-02-21T10:11:55;24.01;18.29
75786;DHT22;64402;44.708;37.644;2024-02-21T10:14:22;22.70;18.76
75786;DHT22;64402;44.708;37.644;2024-02-21T10:16:56;23.87;18.91
75786;DHT22;64402;44.708;37.644;2024-02-21T10:19:22;24.80;17.22
75786;DHT22;64402;44.708;37.644;2024-02-21T10:22:02;25.23;14.81
75786;DHT22;64402;44.708;37.644;2024-02-21T10:24:30;25.96;15.95
75786;DHT22;64402;44.708;37.644;2024-02-21T10:27:08;25.63;14.63
75786;DHT22;64402;44.708;37.644;2024-02-21T10:29:35;24.14;16.64
75786;DHT22;64402;44.708;37.644;2024-02-21T10:32:11;24.55;16.77
75786;DHT22;64402;44.708;37.644;2024-02-21T10:34:41;24.09;17.09
75786;DHT22;64402;44.708;37.644;2024-02-21T10:37:09;23.08;18.14
75786;DHT22;64402;44.708;37.644;2024-02-21T10:39:40;24.06;17.29
75786;DHT22;64402;44.708;37.644;2024-02-21T10:42:06;22.85;18.57
75786;DHT22;64402;44.708;37.644;2024-02-21T10:44:37;23.26;17.80
75786;DHT22;64402;44.708;37.644;2024-02-21T10:47:08;23.75;17.52
75786;DHT22;64402;44.708;37.644;2024-02-21T10:49:40;25.54;15.80
75786;DHT22;64402;44.708;37.644;2024-02-21T10:52:14;24.99;16.40
75786;DHT22;64402;44.708;37.644;2024-02-21T10:54:49;25.05;15.66
75786;DHT22;64402;44.708;37.644;2024-02-21T10:57:20;25.94;14.42
75786;DHT22;64402;44.708;37.644;2024-02-21T10:59:48;25.92;14.54
75786;DHT22;64402;44.708;37.644;2024-02-21T11:02:15;26.55;14.22
75786;DHT22;64402;44.708;37.644;2024-02-21T11:04:42;26.48;14.12
75786;DHT22;64402;44.708;37.644;2024-02-21T11:07:09;27.52;13.76
75786;DHT22;64402;44.708;37.644;2024-02-21T11:09:37;27.81;13.64
75786;DHT22;64402;44.708;37.644;2024-02-21T11:12:05;28.61;12.33
75786;DHT22;64402;44.708;37.644;2024-02-21T11:14:34;28.89;12.08
75786;DHT22;64402;44.708;37.644;2024-02-21T11:17:18;29.33;10.32
75786;DHT22;64402;44.708;37.644;2024-02-21T11:19:45;28.68;11.57
75786;DHT22;64402;44.708;37.644;2024-02-21T11:22:19;27.54;12.47
75786;DHT22;64402;44.708;37.644;2024-02-21T11:24:46;27.94;12.97
75786;DHT22;64402;44.708;37.644;2024-02-21T11:29:43;26.09;14.44
75786;DHT22;64402;44.708;37.644;2024-02-21T11:32:11;25.68;14.38
75786;DHT22;64402;44.708;37.644;2024-02-21T11:34:41;24.43;16.01
75786;DHT22;64402;44.708;37.644;2024-02-21T11:37:18;23.42;17.13
75786;DHT22;64402;44.708;37.644;2024-02-21T11:39:45;23.69;16.54
75786;DHT22;64402;44.708;37.644;2024-02-21T11:42:11;24.16;16.24
75786;DHT22;64402;44.708;37.644;2024-02-21T11:44:39;25.62;14.16
75786;DHT22;64402;44.708;37.644;2024-02-21T11:47:13;26.03;14.47
75786;DHT22;64402;44.708;37.644;2024-02-21T11:49:46;26.70;13.77
75786;DHT22;64402;44.708;37.644;2024-02-21T11:52:12;26.76;13.30
75786;DHT22;64402;44.708;37.644;2024-02-21T11:54:41;27.23;12.58
75786;DHT22;64402;44.708;37.644;2024-02-21T11:57:08;27.93;12.88
75786;DHT22;64402;44.708;37.644;2024-02-21T11:59:35;29.04;12.19
75786;DHT22;64402;44.708;37.644;2024-02-21T12:02:02;29.45;11.44
75786;DHT22;64402;44.708;37.644;2024-02-21T12:04:29;28.60;11.75
75786;DHT22;64402;44.708;37.644;2024-02-21T12:06:59;27.58;12.74
75786;DHT22;64402;44.708;37.644;2024-02-21T12:09:26;27.26;12.28
75786;DHT22;64402;44.708;37.644;2024-02-21T12:12:00;26.61;13.29
75786;DHT22;64402;44.708;37.644;2024-02-21T12:14:28;26.23;13.98
75786;DHT22;64402;44.708;37.644;2024-02-21T12:16:55;26.37;14.20
75786;DHT22;64402;44.708;37.644;2024-02-21T12:19:22;25.76;14.60
75786;DHT22;64402;44.708;37.644;2024-02-21T12:21:49;25.50;14.43
75786;DHT22;64402;44.708;37.644;2024-02-21T12:24:26;24.56;14.16
75786;DHT22;64402;44.708;37.644;2024-02-21T12:26:53;24.63;15.43
75786;DHT22;64402;44.708;37.644;2024-02-21T12:29:20;25.60;14.48
75786;DHT22;64402;44.708;37.644;2024-02-21T12:31:47;25.95;14.69
75786;DHT22;64402;44.708;37.644;2024-02-21T12:34:14;25.24;14.53
75786;DHT22;64402;44.708;37.644;2024-02-21T12:36:42;24.84;15.03
75786;DHT22;64402;44.708;37.644;2024-02-21T12:39:10;24.98;15.28
75786;DHT22;64402;44.708;37.644;2024-02-21T12:41:38;24.93;15.01
75786;DHT22;64402;44.708;37.644;2024-02-21T12:44:05;24.56;15.32
75786;DHT22;64402;44.708;37.644;2024-02-21T12:46:38;24.31;14.97
75786;DHT22;64402;44.708;37.644;2024-02-21T12:49:06;25.42;14.78
75786;DHT22;64402;44.708;37.644;2024-02-21T12:51:35;25.82;15.24
75786;DHT22;64402;44.708;37.644;2024-02-21T12:54:02;25.60;14.52
75786;DHT22;64402;44.708;37.644;2024-02-21T12:56:31;24.49;14.74
75786;DHT22;64402;44.708;37.644;2024-02-21T12:58:58;24.86;15.07
75786;DHT22;64402;44.708;37.644;2024-02-21T13:01:24;25.34;15.17
75786;DHT22;64402;44.708;37.644;2024-02-21T13:03:54;25.02;14.79
75786;DHT22;64402;44.708;37.644;2024-02-21T13:06:22;24.58;15.35
75786;DHT22;64402;44.708;37.644;2024-02-21T13:08:50;24.40;16.55
75786;DHT22;64402;44.708;37.644;2024-02-21T13:11:17;24.13;15.90
75786;DHT22;64402;44.708;37.644;2024-02-21T13:13:45;24.23;16.92
75786;DHT22;64402;44.708;37.644;2024-02-21T13:16:11;25.89;14.65
75786;DHT22;64402;44.708;37.644;2024-02-21T13:18:38;26.55;13.39
75786;DHT22;64402;44.708;37.644;2024-02-21T13:21:05;27.08;12.84
75786;DHT22;64402;44.708;37.644;2024-02-21T13:23:32;26.48;13.37
75786;DHT22;64402;44.708;37.644;2024-02-21T13:25:59;26.79;12.43
75786;DHT22;64402;44.708;37.644;2024-02-21T13:28:28;27.08;13.63
75786;DHT22;64402;44.708;37.644;2024-02-21T13:30:55;27.76;11.32
75786;DHT22;64402;44.708;37.644;2024-02-21T13:33:21;27.61;12.17
75786;DHT22;64402;44.708;37.644;2024-02-21T13:35:48;27.09;12.53
75786;DHT22;64402;44.708;37.644;2024-02-21T13:38:14;27.28;13.30
75786;DHT22;64402;44.708;37.644;2024-02-21T13:40:41;27.59;12.20
75786;DHT22;64402;44.708;37.644;2024-02-21T13:43:08;27.10;12.46
75786;DHT22;64402;44.708;37.644;2024-02-21T13:45:35;26.60;14.71
75786;DHT22;64402;44.708;37.644;2024-02-21T13:48:01;25.48;16.14
75786;DHT22;64402;44.708;37.644;2024-02-21T13:50:31;24.03;18.73
75786;DHT22;64402;44.708;37.644;2024-02-21T13:52:58;22.63;20.92
75786;DHT22;64402;44.708;37.644;2024-02-21T13:55:24;21.44;22.38
75786;DHT22;64402;44.708;37.644;2024-02-21T13:57:54;20.53;23.50
75786;DHT22;64402;44.708;37.644;2024-02-21T14:00:21;19.62;25.81
75786;DHT22;64402;44.708;37.644;2024-02-21T14:02:47;18.97;26.23
75786;DHT22;64402;44.708;37.644;2024-02-21T14:05:14;18.56;27.89
75786;DHT22;64402;44.708;37.644;2024-02-21T14:07:40;17.99;27.46
75786;DHT22;64402;44.708;37.644;2024-02-21T14:10:08;17.37;29.10
75786;DHT22;64402;44.708;37.644;2024-02-21T14:12:35;17.02;30.32
75786;DHT22;64402;44.708;37.644;2024-02-21T14:15:02;16.66;30.86
75786;DHT22;64402;44.708;37.644;2024-02-21T14:17:28;16.41;30.96
75786;DHT22;64402;44.708;37.644;2024-02-21T14:19:55;16.03;31.67
75786;DHT22;64402;44.708;37.644;2024-02-21T14:22:21;15.68;32.55
75786;DHT22;64402;44.708;37.644;2024-02-21T14:24:48;15.39;33.33
75786;DHT22;64402;44.708;37.644;2024-02-21T14:27:14;15.12;34.30
75786;DHT22;64402;44.708;37.644;2024-02-21T14:29:41;14.75;34.09
75786;DHT22;64402;44.708;37.644;2024-02-21T14:32:07;14.41;35.83
75786;DHT22;64402;44.708;37.644;2024-02-21T14:34:36;14.17;36.15
75786;DHT22;64402;44.708;37.644;2024-02-21T14:37:02;13.78;36.59
75786;DHT22;64402;44.708;37.644;2024-02-21T14:39:30;13.53;38.40
75786;DHT22;64402;44.708;37.644;2024-02-21T14:41:56;13.40;37.91
75786;DHT22;64402;44.708;37.644;2024-02-21T14:44:24;13.26;39.05
75786;DHT22;64402;44.708;37.644;2024-02-21T14:46:51;13.16;39.07
75786;DHT22;64402;44.708;37.644;2024-02-21T14:49:17;12.99;38.87
75786;DHT22;64402;44.708;37.644;2024-02-21T14:51:45;12.82;40.31
75786;DHT22;64402;44.708;37.644;2024-02-21T14:54:15;12.64;39.89
75786;DHT22;64402;44.708;37.644;2024-02-21T14:56:42;12.47;40.44
75786;DHT22;64402;44.708;37.644;2024-02-21T14:59:09;12.34;41.32
75786;DHT22;64402;44.708;37.644;2024-02-21T15:01:37;12.08;41.90
75786;DHT22;64402;44.708;37.644;2024-02-21T15:04:06;11.83;42.30
75786;DHT22;64402;44.708;37.644;2024-02-21T15:06:34;11.62;43.64
75786;DHT22;64402;44.708;37.644;2024-02-21T15:09:03;11.48;44.36
75786;DHT22;64402;44.708;37.644;2024-02-21T15:11:30;11.28;44.84
75786;DHT22;64402;44.708;37.644;2024-02-21T15:13:56;11.12;44.77
75786;DHT22;64402;44.708;37.644;2024-02-21T15:16:23;10.92;45.26
75786;DHT22;64402;44.708;37.644;2024-02-21T15:18:49;10.75;45.57
75786;DHT22;64402;44.708;37.644;2024-02-21T15:21:16;10.59;46.12
75786;DHT22;64402;44.708;37.644;2024-02-21T15:23:42;10.44;46.57
75786;DHT22;64402;44.708;37.644;2024-02-21T15:26:09;10.29;46.80